Terminal Aerodrome Forecast
Issued by NWS

Home | Current Version | Previous Version | Text Only | Print | Product List | Glossary On
Versions: 1 2 3 4 5 6 7 8 9 10 11 12 13 14 15 16 17
701
FTUS42 KILM 052340
TAFCRE
TAF
KCRE 052340Z 0600/0624 05006KT P6SM RA BKN020
     FM060600 04011KT 4SM -RA BR OVC005
     FM061500 12008KT 6SM -RA BKN012
     FM062100 25012KT 4SM BR OVC007=

USA.gov is the U.S. government's official web portal to all federal, state and local government web resources and services.